sensor_id;sensor_type;location;lat;lon;timestamp;temperature;humidity
22035;DHT22;11181;51.002;4.356;2023-05-10T00:01:42;15.50;99.90
22035;DHT22;11181;51.002;4.356;2023-05-10T00:04:09;15.50;99.90
22035;DHT22;11181;51.002;4.356;2023-05-10T00:06:36;15.60;99.90
22035;DHT22;11181;51.002;4.356;2023-05-10T00:09:04;15.70;99.90
22035;DHT22;11181;51.002;4.356;2023-05-10T00:11:31;15.70;99.90
22035;DHT22;11181;51.002;4.356;2023-05-10T00:13:58;15.60;99.90
22035;DHT22;11181;51.002;4.356;2023-05-10T00:16:25;15.60;99.90
22035;DHT22;11181;51.002;4.356;2023-05-10T00:18:52;15.50;99.90
22035;DHT22;11181;51.002;4.356;2023-05-10T00:21:19;15.40;99.90
22035;DHT22;11181;51.002;4.356;2023-05-10T00:23:46;15.50;99.90
22035;DHT22;11181;51.002;4.356;2023-05-10T00:26:14;15.50;99.90
22035;DHT22;11181;51.002;4.356;2023-05-10T00:28:42;15.70;99.90
22035;DHT22;11181;51.002;4.356;2023-05-10T00:31:09;15.70;99.90
22035;DHT22;11181;51.002;4.356;2023-05-10T00:33:35;15.70;99.90
22035;DHT22;11181;51.002;4.356;2023-05-10T00:36:03;15.70;99.90
22035;DHT22;11181;51.002;4.356;2023-05-10T00:38:33;15.80;99.90
22035;DHT22;11181;51.002;4.356;2023-05-10T00:41:00;15.80;99.90
22035;DHT22;11181;51.002;4.356;2023-05-10T00:43:28;15.80;99.90
22035;DHT22;11181;51.002;4.356;2023-05-10T00:45:55;15.80;99.90
22035;DHT22;11181;51.002;4.356;2023-05-10T00:48:22;15.70;99.90
22035;DHT22;11181;51.002;4.356;2023-05-10T00:50:49;15.60;99.90
22035;DHT22;11181;51.002;4.356;2023-05-10T00:53:16;15.60;99.90
22035;DHT22;11181;51.002;4.356;2023-05-10T00:55:43;15.60;99.90
22035;DHT22;11181;51.002;4.356;2023-05-10T00:58:11;15.60;99.90
22035;DHT22;11181;51.002;4.356;2023-05-10T01:00:42;15.70;99.90
22035;DHT22;11181;51.002;4.356;2023-05-10T01:03:10;15.70;99.90
22035;DHT22;11181;51.002;4.356;2023-05-10T01:05:36;15.70;99.90
22035;DHT22;11181;51.002;4.356;2023-05-10T01:08:04;15.60;99.90
22035;DHT22;11181;51.002;4.356;2023-05-10T01:10:31;15.70;99.90
22035;DHT22;11181;51.002;4.356;2023-05-10T01:12:59;15.70;99.90
22035;DHT22;11181;51.002;4.356;2023-05-10T01:15:26;15.70;99.90
22035;DHT22;11181;51.002;4.356;2023-05-10T01:17:55;15.70;99.90
22035;DHT22;11181;51.002;4.356;2023-05-10T01:20:23;15.70;99.90
22035;DHT22;11181;51.002;4.356;2023-05-10T01:23:11;15.70;99.90
22035;DHT22;11181;51.002;4.356;2023-05-10T01:32:24;15.40;99.90
22035;DHT22;11181;51.002;4.356;2023-05-10T01:34:59;15.50;99.90
22035;DHT22;11181;51.002;4.356;2023-05-10T01:37:31;15.40;99.90
22035;DHT22;11181;51.002;4.356;2023-05-10T01:40:05;15.50;99.90
22035;DHT22;11181;51.002;4.356;2023-05-10T01:42:40;15.50;99.90
22035;DHT22;11181;51.002;4.356;2023-05-10T01:45:15;15.50;99.90
22035;DHT22;11181;51.002;4.356;2023-05-10T01:47:46;15.60;99.90
22035;DHT22;11181;51.002;4.356;2023-05-10T01:50:18;15.60;99.90
22035;DHT22;11181;51.002;4.356;2023-05-10T01:52:51;15.60;99.90
22035;DHT22;11181;51.002;4.356;2023-05-10T01:55:21;15.50;99.90
22035;DHT22;11181;51.002;4.356;2023-05-10T01:57:55;15.50;99.90
22035;DHT22;11181;51.002;4.356;2023-05-10T02:00:23;15.40;99.90
22035;DHT22;11181;51.002;4.356;2023-05-10T02:02:52;15.30;99.90
22035;DHT22;11181;51.002;4.356;2023-05-10T02:05:21;15.20;99.90
22035;DHT22;11181;51.002;4.356;2023-05-10T02:07:49;15.20;99.90
22035;DHT22;11181;51.002;4.356;2023-05-10T02:10:18;15.20;99.90
22035;DHT22;11181;51.002;4.356;2023-05-10T02:12:47;15.30;99.90
22035;DHT22;11181;51.002;4.356;2023-05-10T02:15:18;15.20;99.90
22035;DHT22;11181;51.002;4.356;2023-05-10T02:17:46;15.30;99.90
22035;DHT22;11181;51.002;4.356;2023-05-10T02:20:16;15.30;99.90
22035;DHT22;11181;51.002;4.356;2023-05-10T02:22:47;15.30;99.90
22035;DHT22;11181;51.002;4.356;2023-05-10T02:25:15;15.40;99.90
22035;DHT22;11181;51.002;4.356;2023-05-10T02:27:44;15.40;99.90
22035;DHT22;11181;51.002;4.356;2023-05-10T02:30:14;15.30;99.90
22035;DHT22;11181;51.002;4.356;2023-05-10T02:32:41;15.20;99.90
22035;DHT22;11181;51.002;4.356;2023-05-10T02:35:09;15.20;99.90
22035;DHT22;11181;51.002;4.356;2023-05-10T02:37:39;15.20;99.90
22035;DHT22;11181;51.002;4.356;2023-05-10T02:40:08;15.10;99.90
22035;DHT22;11181;51.002;4.356;2023-05-10T02:42:36;15.10;99.90
22035;DHT22;11181;51.002;4.356;2023-05-10T02:45:08;15.10;99.90
22035;DHT22;11181;51.002;4.356;2023-05-10T02:47:37;15.10;99.90
22035;DHT22;11181;51.002;4.356;2023-05-10T02:50:05;15.10;99.90
22035;DHT22;11181;51.002;4.356;2023-05-10T02:52:40;15.00;99.90
22035;DHT22;11181;51.002;4.356;2023-05-10T02:55:09;15.00;99.90
22035;DHT22;11181;51.002;4.356;2023-05-10T02:57:41;15.00;99.90
22035;DHT22;11181;51.002;4.356;2023-05-10T03:00:10;14.90;99.90
22035;DHT22;11181;51.002;4.356;2023-05-10T03:02:37;14.90;99.90
22035;DHT22;11181;51.002;4.356;2023-05-10T03:05:05;14.90;99.90
22035;DHT22;11181;51.002;4.356;2023-05-10T03:07:33;14.80;99.90
22035;DHT22;11181;51.002;4.356;2023-05-10T03:10:02;14.80;99.90
22035;DHT22;11181;51.002;4.356;2023-05-10T03:12:38;14.80;99.90
22035;DHT22;11181;51.002;4.356;2023-05-10T03:15:13;14.80;99.90
22035;DHT22;11181;51.002;4.356;2023-05-10T03:17:46;14.80;99.90
22035;DHT22;11181;51.002;4.356;2023-05-10T03:20:20;14.70;99.90
22035;DHT22;11181;51.002;4.356;2023-05-10T03:22:51;14.70;99.90
22035;DHT22;11181;51.002;4.356;2023-05-10T03:25:21;14.70;99.90
22035;DHT22;11181;51.002;4.356;2023-05-10T03:27:48;14.70;99.90
22035;DHT22;11181;51.002;4.356;2023-05-10T03:30:16;14.80;99.90
22035;DHT22;11181;51.002;4.356;2023-05-10T03:32:44;14.70;99.90
22035;DHT22;11181;51.002;4.356;2023-05-10T03:35:12;14.60;99.90
22035;DHT22;11181;51.002;4.356;2023-05-10T03:37:39;14.40;99.90
22035;DHT22;11181;51.002;4.356;2023-05-10T03:40:07;14.50;99.90
22035;DHT22;11181;51.002;4.356;2023-05-10T03:42:36;14.60;99.90
22035;DHT22;11181;51.002;4.356;2023-05-10T03:45:03;14.50;99.90
22035;DHT22;11181;51.002;4.356;2023-05-10T03:47:30;14.60;99.90
22035;DHT22;11181;51.002;4.356;2023-05-10T03:49:57;14.60;99.90
22035;DHT22;11181;51.002;4.356;2023-05-10T03:52:24;14.70;99.90
22035;DHT22;11181;51.002;4.356;2023-05-10T03:54:51;14.70;99.90
22035;DHT22;11181;51.002;4.356;2023-05-10T03:57:18;14.70;99.90
22035;DHT22;11181;51.002;4.356;2023-05-10T03:59:46;14.60;99.90
22035;DHT22;11181;51.002;4.356;2023-05-10T04:02:13;14.50;99.90
22035;DHT22;11181;51.002;4.356;2023-05-10T04:04:40;14.40;99.90
22035;DHT22;11181;51.002;4.356;2023-05-10T04:07:07;14.40;99.90
22035;DHT22;11181;51.002;4.356;2023-05-10T04:09:35;14.50;99.90
22035;DHT22;11181;51.002;4.356;2023-05-10T04:12:02;14.60;99.90
22035;DHT22;11181;51.002;4.356;2023-05-10T04:14:29;14.70;99.90
22035;DHT22;11181;51.002;4.356;2023-05-10T04:16:58;14.70;99.90
22035;DHT22;11181;51.002;4.356;2023-05-10T04:19:29;14.70;99.90
22035;DHT22;11181;51.002;4.356;2023-05-10T04:21:56;14.80;99.90
22035;DHT22;11181;51.002;4.356;2023-05-10T04:24:23;14.60;99.90
22035;DHT22;11181;51.002;4.356;2023-05-10T04:26:51;14.70;99.90
22035;DHT22;11181;51.002;4.356;2023-05-10T04:29:18;14.80;99.90
22035;DHT22;11181;51.002;4.356;2023-05-10T04:31:45;15.00;99.90
22035;DHT22;11181;51.002;4.356;2023-05-10T04:34:13;15.00;99.90
22035;DHT22;11181;51.002;4.356;2023-05-10T04:36:40;15.00;99.90
22035;DHT22;11181;51.002;4.356;2023-05-10T04:39:07;15.10;99.90
22035;DHT22;11181;51.002;4.356;2023-05-10T04:41:35;15.20;99.90
22035;DHT22;11181;51.002;4.356;2023-05-10T04:44:02;15.20;99.90
22035;DHT22;11181;51.002;4.356;2023-05-10T04:46:29;15.20;99.90
22035;DHT22;11181;51.002;4.356;2023-05-10T04:48:55;15.20;99.90
22035;DHT22;11181;51.002;4.356;2023-05-10T04:51:24;15.20;99.90
22035;DHT22;11181;51.002;4.356;2023-05-10T04:53:51;15.20;99.90
22035;DHT22;11181;51.002;4.356;2023-05-10T04:56:17;15.20;99.90
22035;DHT22;11181;51.002;4.356;2023-05-10T04:58:44;15.30;99.90
22035;DHT22;11181;51.002;4.356;2023-05-10T05:01:11;15.30;99.90
22035;DHT22;11181;51.002;4.356;2023-05-10T05:03:38;15.40;99.90
22035;DHT22;11181;51.002;4.356;2023-05-10T05:06:05;15.40;99.90
22035;DHT22;11181;51.002;4.356;2023-05-10T05:08:34;15.50;99.90
22035;DHT22;11181;51.002;4.356;2023-05-10T05:11:01;15.60;99.90
22035;DHT22;11181;51.002;4.356;2023-05-10T05:13:27;15.50;99.90
22035;DHT22;11181;51.002;4.356;2023-05-10T05:15:54;15.40;99.90
22035;DHT22;11181;51.002;4.356;2023-05-10T05:18:21;15.50;99.90
22035;DHT22;11181;51.002;4.356;2023-05-10T05:20:48;15.50;99.90
22035;DHT22;11181;51.002;4.356;2023-05-10T05:23:15;15.60;99.90
22035;DHT22;11181;51.002;4.356;2023-05-10T05:25:43;15.60;99.90
22035;DHT22;11181;51.002;4.356;2023-05-10T05:28:10;15.70;99.90
22035;DHT22;11181;51.002;4.356;2023-05-10T05:30:37;15.70;99.90
22035;DHT22;11181;51.002;4.356;2023-05-10T05:33:04;15.70;99.90
22035;DHT22;11181;51.002;4.356;2023-05-10T05:35:31;15.70;99.90
22035;DHT22;11181;51.002;4.356;2023-05-10T05:37:58;15.80;99.90
22035;DHT22;11181;51.002;4.356;2023-05-10T05:40:25;15.80;99.90
22035;DHT22;11181;51.002;4.356;2023-05-10T05:42:53;15.80;99.90
22035;DHT22;11181;51.002;4.356;2023-05-10T05:45:20;15.80;99.90
22035;DHT22;11181;51.002;4.356;2023-05-10T05:47:47;15.90;99.90
22035;DHT22;11181;51.002;4.356;2023-05-10T05:50:14;15.90;99.90
22035;DHT22;11181;51.002;4.356;2023-05-10T05:52:41;15.90;99.90
22035;DHT22;11181;51.002;4.356;2023-05-10T05:55:08;15.90;99.90
22035;DHT22;11181;51.002;4.356;2023-05-10T05:57:35;15.90;99.90
22035;DHT22;11181;51.002;4.356;2023-05-10T06:00:04;15.90;99.90
22035;DHT22;11181;51.002;4.356;2023-05-10T06:02:31;15.90;99.90
22035;DHT22;11181;51.002;4.356;2023-05-10T06:04:58;15.90;99.90
22035;DHT22;11181;51.002;4.356;2023-05-10T06:07:25;15.80;99.90
22035;DHT22;11181;51.002;4.356;2023-05-10T06:09:52;15.80;99.90
22035;DHT22;11181;51.002;4.356;2023-05-10T06:12:19;15.80;99.90
22035;DHT22;11181;51.002;4.356;2023-05-10T06:14:45;15.90;99.90
22035;DHT22;11181;51.002;4.356;2023-05-10T06:17:14;15.90;99.90
22035;DHT22;11181;51.002;4.356;2023-05-10T06:19:40;15.80;99.90
22035;DHT22;11181;51.002;4.356;2023-05-10T06:22:07;15.80;99.90
22035;DHT22;11181;51.002;4.356;2023-05-10T06:24:34;15.90;99.90
22035;DHT22;11181;51.002;4.356;2023-05-10T06:27:01;15.80;99.90
22035;DHT22;11181;51.002;4.356;2023-05-10T06:29:29;15.90;99.90
22035;DHT22;11181;51.002;4.356;2023-05-10T06:31:56;15.90;99.90
22035;DHT22;11181;51.002;4.356;2023-05-10T06:34:25;15.90;99.90
22035;DHT22;11181;51.002;4.356;2023-05-10T06:36:52;15.80;99.90
22035;DHT22;11181;51.002;4.356;2023-05-10T06:39:19;15.80;99.90
22035;DHT22;11181;51.002;4.356;2023-05-10T06:41:46;15.90;99.90
22035;DHT22;11181;51.002;4.356;2023-05-10T06:44:13;15.90;99.90
22035;DHT22;11181;51.002;4.356;2023-05-10T06:46:40;15.90;99.90
22035;DHT22;11181;51.002;4.356;2023-05-10T06:49:07;15.70;99.90
22035;DHT22;11181;51.002;4.356;2023-05-10T06:51:35;15.60;99.90
22035;DHT22;11181;51.002;4.356;2023-05-10T06:54:02;15.60;99.90
22035;DHT22;11181;51.002;4.356;2023-05-10T06:56:29;15.60;99.90
22035;DHT22;11181;51.002;4.356;2023-05-10T06:58:55;15.60;99.90
22035;DHT22;11181;51.002;4.356;2023-05-10T07:01:22;15.60;99.90
22035;DHT22;11181;51.002;4.356;2023-05-10T07:03:49;15.70;99.90
22035;DHT22;11181;51.002;4.356;2023-05-10T07:06:16;15.70;99.90
22035;DHT22;11181;51.002;4.356;2023-05-10T07:08:45;15.60;99.90
22035;DHT22;11181;51.002;4.356;2023-05-10T07:11:11;15.60;99.90
22035;DHT22;11181;51.002;4.356;2023-05-10T07:13:38;15.50;99.90
22035;DHT22;11181;51.002;4.356;2023-05-10T07:16:09;15.40;99.90
22035;DHT22;11181;51.002;4.356;2023-05-10T07:18:36;15.40;99.90
22035;DHT22;11181;51.002;4.356;2023-05-10T07:21:03;15.50;99.90
22035;DHT22;11181;51.002;4.356;2023-05-10T07:23:30;15.50;99.90
22035;DHT22;11181;51.002;4.356;2023-05-10T07:25:58;15.30;99.90
22035;DHT22;11181;51.002;4.356;2023-05-10T07:28:25;15.40;99.90
22035;DHT22;11181;51.002;4.356;2023-05-10T07:30:52;15.30;99.90
22035;DHT22;11181;51.002;4.356;2023-05-10T07:33:19;15.40;99.90
22035;DHT22;11181;51.002;4.356;2023-05-10T07:35:46;15.50;99.90
22035;DHT22;11181;51.002;4.356;2023-05-10T07:38:13;15.70;99.90
22035;DHT22;11181;51.002;4.356;2023-05-10T07:40:40;15.80;99.90
22035;DHT22;11181;51.002;4.356;2023-05-10T07:43:08;15.80;99.90
22035;DHT22;11181;51.002;4.356;2023-05-10T07:45:35;15.80;99.90
22035;DHT22;11181;51.002;4.356;2023-05-10T07:48:02;16.00;99.90
22035;DHT22;11181;51.002;4.356;2023-05-10T07:50:29;16.00;99.90
22035;DHT22;11181;51.002;4.356;2023-05-10T07:52:55;16.00;99.90
22035;DHT22;11181;51.002;4.356;2023-05-10T07:55:22;16.10;99.90
22035;DHT22;11181;51.002;4.356;2023-05-10T07:57:49;16.20;99.90
22035;DHT22;11181;51.002;4.356;2023-05-10T08:00:19;16.20;99.90
22035;DHT22;11181;51.002;4.356;2023-05-10T08:02:47;16.20;99.90
22035;DHT22;11181;51.002;4.356;2023-05-10T08:05:14;16.20;99.90
22035;DHT22;11181;51.002;4.356;2023-05-10T08:07:41;16.20;99.90
22035;DHT22;11181;51.002;4.356;2023-05-10T08:10:09;16.20;99.90
22035;DHT22;11181;51.002;4.356;2023-05-10T08:12:37;16.20;99.90
22035;DHT22;11181;51.002;4.356;2023-05-10T08:15:05;16.20;99.90
22035;DHT22;11181;51.002;4.356;2023-05-10T08:17:34;16.30;99.90
22035;DHT22;11181;51.002;4.356;2023-05-10T08:20:01;16.50;99.90
22035;DHT22;11181;51.002;4.356;2023-05-10T08:22:27;16.50;99.90
22035;DHT22;11181;51.002;4.356;2023-05-10T08:24:54;16.40;99.90
22035;DHT22;11181;51.002;4.356;2023-05-10T08:27:21;16.50;99.90
22035;DHT22;11181;51.002;4.356;2023-05-10T08:29:48;16.50;99.90
22035;DHT22;11181;51.002;4.356;2023-05-10T08:32:15;16.50;99.90
22035;DHT22;11181;51.002;4.356;2023-05-10T08:34:43;16.50;99.90
22035;DHT22;11181;51.002;4.356;2023-05-10T08:37:10;16.50;99.90
22035;DHT22;11181;51.002;4.356;2023-05-10T08:39:38;16.30;99.90
22035;DHT22;11181;51.002;4.356;2023-05-10T08:42:06;16.30;99.90
22035;DHT22;11181;51.002;4.356;2023-05-10T08:44:35;16.10;99.90
22035;DHT22;11181;51.002;4.356;2023-05-10T08:47:05;16.10;99.90
22035;DHT22;11181;51.002;4.356;2023-05-10T08:49:32;16.10;99.90
22035;DHT22;11181;51.002;4.356;2023-05-10T08:52:03;16.10;99.90
22035;DHT22;11181;51.002;4.356;2023-05-10T08:54:31;16.10;99.90
22035;DHT22;11181;51.002;4.356;2023-05-10T08:56:58;16.10;99.90
22035;DHT22;11181;51.002;4.356;2023-05-10T08:59:25;16.10;99.90
22035;DHT22;11181;51.002;4.356;2023-05-10T09:01:54;16.00;99.90
22035;DHT22;11181;51.002;4.356;2023-05-10T09:04:23;16.00;99.90
22035;DHT22;11181;51.002;4.356;2023-05-10T09:06:50;16.00;99.90
22035;DHT22;11181;51.002;4.356;2023-05-10T09:09:19;16.00;99.90
22035;DHT22;11181;51.002;4.356;2023-05-10T09:11:47;15.90;99.90
22035;DHT22;11181;51.002;4.356;2023-05-10T09:14:15;15.80;99.90
22035;DHT22;11181;51.002;4.356;2023-05-10T09:16:42;15.90;99.90
22035;DHT22;11181;51.002;4.356;2023-05-10T09:19:10;16.20;99.90
22035;DHT22;11181;51.002;4.356;2023-05-10T09:21:37;16.40;99.90
22035;DHT22;11181;51.002;4.356;2023-05-10T09:24:05;16.40;99.90
22035;DHT22;11181;51.002;4.356;2023-05-10T09:26:33;16.50;99.90
22035;DHT22;11181;51.002;4.356;2023-05-10T09:29:02;16.50;99.90
22035;DHT22;11181;51.002;4.356;2023-05-10T09:31:46;16.40;99.90
22035;DHT22;11181;51.002;4.356;2023-05-10T09:34:16;16.30;99.90
22035;DHT22;11181;51.002;4.356;2023-05-10T09:36:54;16.30;99.90
22035;DHT22;11181;51.002;4.356;2023-05-10T09:39:30;16.30;99.90
22035;DHT22;11181;51.002;4.356;2023-05-10T09:41:59;16.30;99.90
22035;DHT22;11181;51.002;4.356;2023-05-10T09:44:29;16.20;99.90
22035;DHT22;11181;51.002;4.356;2023-05-10T09:46:56;16.10;99.90
22035;DHT22;11181;51.002;4.356;2023-05-10T09:49:23;16.10;99.90
22035;DHT22;11181;51.002;4.356;2023-05-10T09:52:00;16.10;99.90
22035;DHT22;11181;51.002;4.356;2023-05-10T09:54:27;16.10;99.90
22035;DHT22;11181;51.002;4.356;2023-05-10T09:56:54;16.10;99.90
22035;DHT22;11181;51.002;4.356;2023-05-10T09:59:25;16.20;99.90
22035;DHT22;11181;51.002;4.356;2023-05-10T10:01:52;16.20;99.90
22035;DHT22;11181;51.002;4.356;2023-05-10T10:04:20;16.20;99.90
22035;DHT22;11181;51.002;4.356;2023-05-10T10:06:58;16.10;99.90
22035;DHT22;11181;51.002;4.356;2023-05-10T10:09:26;16.10;99.90
22035;DHT22;11181;51.002;4.356;2023-05-10T10:11:54;16.00;99.90
22035;DHT22;11181;51.002;4.356;2023-05-10T10:14:23;16.10;99.90
22035;DHT22;11181;51.002;4.356;2023-05-10T10:16:50;16.10;99.90
22035;DHT22;11181;51.002;4.356;2023-05-10T10:19:18;16.10;99.90
22035;DHT22;11181;51.002;4.356;2023-05-10T10:21:45;16.10;99.90
22035;DHT22;11181;51.002;4.356;2023-05-10T10:24:12;16.10;99.90
22035;DHT22;11181;51.002;4.356;2023-05-10T10:26:39;16.10;99.90
22035;DHT22;11181;51.002;4.356;2023-05-10T10:29:14;16.10;99.90
22035;DHT22;11181;51.002;4.356;2023-05-10T10:31:48;16.00;99.90
22035;DHT22;11181;51.002;4.356;2023-05-10T10:34:25;16.00;99.90
22035;DHT22;11181;51.002;4.356;2023-05-10T10:36:54;16.10;99.90
22035;DHT22;11181;51.002;4.356;2023-05-10T10:39:22;16.10;99.90
22035;DHT22;11181;51.002;4.356;2023-05-10T10:41:51;16.20;99.90
22035;DHT22;11181;51.002;4.356;2023-05-10T10:44:35;16.30;99.90
22035;DHT22;11181;51.002;4.356;2023-05-10T10:47:23;16.40;99.90
22035;DHT22;11181;51.002;4.356;2023-05-10T10:50:03;16.60;99.90
22035;DHT22;11181;51.002;4.356;2023-05-10T10:52:32;16.60;99.90
22035;DHT22;11181;51.002;4.356;2023-05-10T10:55:02;16.70;99.90
22035;DHT22;11181;51.002;4.356;2023-05-10T10:57:42;16.80;99.90
22035;DHT22;11181;51.002;4.356;2023-05-10T11:00:27;17.00;99.90
22035;DHT22;11181;51.002;4.356;2023-05-10T11:02:58;16.80;99.90
22035;DHT22;11181;51.002;4.356;2023-05-10T11:05:41;17.00;99.90
22035;DHT22;11181;51.002;4.356;2023-05-10T11:08:19;17.10;99.90
22035;DHT22;11181;51.002;4.356;2023-05-10T11:10:52;17.10;99.90
22035;DHT22;11181;51.002;4.356;2023-05-10T11:13:30;17.20;99.90
22035;DHT22;11181;51.002;4.356;2023-05-10T11:15:57;17.00;99.90
22035;DHT22;11181;51.002;4.356;2023-05-10T11:18:27;17.00;99.90
22035;DHT22;11181;51.002;4.356;2023-05-10T11:20:57;17.00;99.90
22035;DHT22;11181;51.002;4.356;2023-05-10T11:23:29;17.00;99.90
22035;DHT22;11181;51.002;4.356;2023-05-10T11:25:56;17.10;99.90
22035;DHT22;11181;51.002;4.356;2023-05-10T11:28:24;17.10;99.90
22035;DHT22;11181;51.002;4.356;2023-05-10T11:30:52;17.00;99.90
22035;DHT22;11181;51.002;4.356;2023-05-10T11:33:20;17.00;99.90
22035;DHT22;11181;51.002;4.356;2023-05-10T11:35:48;17.10;99.90
22035;DHT22;11181;51.002;4.356;2023-05-10T11:38:15;17.20;99.90
22035;DHT22;11181;51.002;4.356;2023-05-10T11:40:42;17.30;99.90
22035;DHT22;11181;51.002;4.356;2023-05-10T11:43:10;17.30;99.90
22035;DHT22;11181;51.002;4.356;2023-05-10T11:45:39;17.30;99.90
22035;DHT22;11181;51.002;4.356;2023-05-10T11:48:06;17.40;99.90
22035;DHT22;11181;51.002;4.356;2023-05-10T11:50:33;17.40;99.90
22035;DHT22;11181;51.002;4.356;2023-05-10T11:53:02;17.50;99.90
22035;DHT22;11181;51.002;4.356;2023-05-10T11:55:29;17.60;99.90
22035;DHT22;11181;51.002;4.356;2023-05-10T11:58:00;17.70;99.90
22035;DHT22;11181;51.002;4.356;2023-05-10T12:00:28;17.70;99.90
22035;DHT22;11181;51.002;4.356;2023-05-10T12:02:55;17.60;99.90
22035;DHT22;11181;51.002;4.356;2023-05-10T12:05:22;17.70;99.90
22035;DHT22;11181;51.002;4.356;2023-05-10T12:07:49;17.70;99.90
22035;DHT22;11181;51.002;4.356;2023-05-10T12:10:25;17.60;99.90
22035;DHT22;11181;51.002;4.356;2023-05-10T12:12:53;17.50;99.90
22035;DHT22;11181;51.002;4.356;2023-05-10T12:15:21;17.50;99.90
22035;DHT22;11181;51.002;4.356;2023-05-10T12:17:48;17.50;99.90
22035;DHT22;11181;51.002;4.356;2023-05-10T12:20:19;17.40;99.90
22035;DHT22;11181;51.002;4.356;2023-05-10T12:22:49;17.30;99.90
22035;DHT22;11181;51.002;4.356;2023-05-10T12:25:18;17.40;99.90
22035;DHT22;11181;51.002;4.356;2023-05-10T12:27:50;17.30;99.90
22035;DHT22;11181;51.002;4.356;2023-05-10T12:30:21;17.30;99.90
22035;DHT22;11181;51.002;4.356;2023-05-10T12:32:49;17.40;99.90
22035;DHT22;11181;51.002;4.356;2023-05-10T12:35:16;17.10;99.90
22035;DHT22;11181;51.002;4.356;2023-05-10T12:37:46;16.90;99.90
22035;DHT22;11181;51.002;4.356;2023-05-10T12:40:13;16.80;99.90
22035;DHT22;11181;51.002;4.356;2023-05-10T12:42:42;16.80;99.90
22035;DHT22;11181;51.002;4.356;2023-05-10T12:45:10;16.70;99.90
22035;DHT22;11181;51.002;4.356;2023-05-10T12:47:38;16.80;99.90
22035;DHT22;11181;51.002;4.356;2023-05-10T12:50:06;16.90;99.90
22035;DHT22;11181;51.002;4.356;2023-05-10T12:52:33;16.90;99.90
22035;DHT22;11181;51.002;4.356;2023-05-10T12:55:00;17.00;99.90
22035;DHT22;11181;51.002;4.356;2023-05-10T12:57:28;17.20;99.90
22035;DHT22;11181;51.002;4.356;2023-05-10T12:59:57;17.30;99.90
22035;DHT22;11181;51.002;4.356;2023-05-10T13:02:24;17.30;99.90
22035;DHT22;11181;51.002;4.356;2023-05-10T13:04:52;17.40;99.90
22035;DHT22;11181;51.002;4.356;2023-05-10T13:07:19;17.50;99.90
22035;DHT22;11181;51.002;4.356;2023-05-10T13:09:46;17.70;99.90
22035;DHT22;11181;51.002;4.356;2023-05-10T13:12:13;17.70;99.90
22035;DHT22;11181;51.002;4.356;2023-05-10T13:14:40;17.50;99.90
22035;DHT22;11181;51.002;4.356;2023-05-10T13:17:08;17.50;99.90
22035;DHT22;11181;51.002;4.356;2023-05-10T13:19:35;17.60;99.90
22035;DHT22;11181;51.002;4.356;2023-05-10T13:22:03;17.70;99.90
22035;DHT22;11181;51.002;4.356;2023-05-10T13:24:30;17.70;99.90
22035;DHT22;11181;51.002;4.356;2023-05-10T13:26:58;17.80;99.90
22035;DHT22;11181;51.002;4.356;2023-05-10T13:29:25;17.90;99.90
22035;DHT22;11181;51.002;4.356;2023-05-10T13:31:51;17.90;99.90
22035;DHT22;11181;51.002;4.356;2023-05-10T13:34:20;18.00;99.90
22035;DHT22;11181;51.002;4.356;2023-05-10T13:36:47;18.10;99.90
22035;DHT22;11181;51.002;4.356;2023-05-10T13:39:14;18.10;99.90
22035;DHT22;11181;51.002;4.356;2023-05-10T13:41:41;18.20;99.90
22035;DHT22;11181;51.002;4.356;2023-05-10T13:44:08;18.30;99.90
22035;DHT22;11181;51.002;4.356;2023-05-10T13:46:36;18.40;99.90
22035;DHT22;11181;51.002;4.356;2023-05-10T13:49:04;18.40;99.90
22035;DHT22;11181;51.002;4.356;2023-05-10T13:51:33;18.60;99.90
22035;DHT22;11181;51.002;4.356;2023-05-10T13:54:00;18.60;99.90
22035;DHT22;11181;51.002;4.356;2023-05-10T13:56:27;18.60;99.90
22035;DHT22;11181;51.002;4.356;2023-05-10T13:58:54;18.60;99.90
22035;DHT22;11181;51.002;4.356;2023-05-10T14:01:21;18.50;99.90
22035;DHT22;11181;51.002;4.356;2023-05-10T14:03:48;18.50;99.90
22035;DHT22;11181;51.002;4.356;2023-05-10T14:06:15;18.50;99.90
22035;DHT22;11181;51.002;4.356;2023-05-10T14:08:43;18.40;99.90
22035;DHT22;11181;51.002;4.356;2023-05-10T14:11:10;18.40;99.90
22035;DHT22;11181;51.002;4.356;2023-05-10T14:13:37;18.40;99.90
22035;DHT22;11181;51.002;4.356;2023-05-10T14:16:04;18.40;99.90
22035;DHT22;11181;51.002;4.356;2023-05-10T14:18:31;18.50;99.90
22035;DHT22;11181;51.002;4.356;2023-05-10T14:20:58;18.40;99.90
22035;DHT22;11181;51.002;4.356;2023-05-10T14:23:25;18.50;99.90
22035;DHT22;11181;51.002;4.356;2023-05-10T14:25:55;18.60;99.90
22035;DHT22;11181;51.002;4.356;2023-05-10T14:28:22;18.50;99.90
22035;DHT22;11181;51.002;4.356;2023-05-10T14:30:50;18.40;99.90
22035;DHT22;11181;51.002;4.356;2023-05-10T14:33:17;18.40;99.90
22035;DHT22;11181;51.002;4.356;2023-05-10T14:35:44;18.40;99.90
22035;DHT22;11181;51.002;4.356;2023-05-10T14:38:12;18.40;99.90
22035;DHT22;11181;51.002;4.356;2023-05-10T14:40:39;18.40;99.90
22035;DHT22;11181;51.002;4.356;2023-05-10T14:43:07;18.30;99.90
22035;DHT22;11181;51.002;4.356;2023-05-10T14:45:34;18.30;99.90
22035;DHT22;11181;51.002;4.356;2023-05-10T14:48:01;18.30;99.90
22035;DHT22;11181;51.002;4.356;2023-05-10T14:50:30;18.20;99.90
22035;DHT22;11181;51.002;4.356;2023-05-10T14:52:57;18.10;99.90
22035;DHT22;11181;51.002;4.356;2023-05-10T14:55:24;18.00;99.90
22035;DHT22;11181;51.002;4.356;2023-05-10T14:57:51;17.90;99.90
22035;DHT22;11181;51.002;4.356;2023-05-10T15:00:20;17.80;99.90
22035;DHT22;11181;51.002;4.356;2023-05-10T15:02:47;17.70;99.90
22035;DHT22;11181;51.002;4.356;2023-05-10T15:05:14;17.60;99.90
22035;DHT22;11181;51.002;4.356;2023-05-10T15:07:41;17.50;99.90
22035;DHT22;11181;51.002;4.356;2023-05-10T15:10:09;17.50;99.90
22035;DHT22;11181;51.002;4.356;2023-05-10T15:12:36;17.30;99.90
22035;DHT22;11181;51.002;4.356;2023-05-10T15:15:03;17.30;99.90
22035;DHT22;11181;51.002;4.356;2023-05-10T15:17:32;17.40;99.90
22035;DHT22;11181;51.002;4.356;2023-05-10T15:19:59;17.40;99.90
22035;DHT22;11181;51.002;4.356;2023-05-10T15:22:27;17.40;99.90
22035;DHT22;11181;51.002;4.356;2023-05-10T15:24:54;17.40;99.90
22035;DHT22;11181;51.002;4.356;2023-05-10T15:27:21;17.40;99.90
22035;DHT22;11181;51.002;4.356;2023-05-10T15:29:48;17.40;99.90
22035;DHT22;11181;51.002;4.356;2023-05-10T15:32:15;17.40;99.90
22035;DHT22;11181;51.002;4.356;2023-05-10T15:34:43;17.40;99.90
22035;DHT22;11181;51.002;4.356;2023-05-10T15:37:10;17.30;99.90
22035;DHT22;11181;51.002;4.356;2023-05-10T15:39:37;17.10;99.90
22035;DHT22;11181;51.002;4.356;2023-05-10T15:42:04;17.10;99.90
22035;DHT22;11181;51.002;4.356;2023-05-10T15:44:30;17.10;99.90